Terminal Aerodrome Forecast
Issued by NWS

Home | Current Version | Previous Version | Text Only | Print | Product List | Glossary On
Versions: 1 2 3 4 5 6 7 8 9 10 11 12 13 14
000
FTUS42 KTAE 251401 AAB
TAFDHN
TAF AMD
KDHN 251401Z 2514/2612 22012KT P6SM VCTS BKN040CB
     FM252300 24012KT P6SM SCT030 BKN100
     FM260800 23010KT P6SM BKN007=

USA.gov is the U.S. government's official web portal to all federal, state and local government web resources and services.